createdAt,value
2023-01-09T00:01:52.946Z,100.00
2023-01-09T00:06:54.501Z,100.00
2023-01-09T00:11:57.192Z,100.00
2023-01-09T00:16:58.647Z,100.00
2023-01-09T00:22:00.241Z,100.00
2023-01-09T00:27:01.921Z,100.00
2023-01-09T00:32:03.515Z,100.00
2023-01-09T00:37:11.661Z,100.00
2023-01-09T00:42:24.401Z,100.00
2023-01-09T00:47:33.567Z,100.00
2023-01-09T00:52:37.734Z,100.00
2023-01-09T00:57:39.232Z,100.00
2023-01-09T01:02:40.879Z,100.00
2023-01-09T01:07:43.310Z,100.00
2023-01-09T01:12:44.813Z,99.47
2023-01-09T01:17:46.459Z,99.64
2023-01-09T01:22:47.964Z,98.95
2023-01-09T01:27:49.414Z,98.00
2023-01-09T01:32:50.810Z,98.75
2023-01-09T01:37:52.251Z,98.21
2023-01-09T01:42:54.860Z,98.16
2023-01-09T01:48:10.965Z,97.98
2023-01-09T01:53:41.288Z,97.70
2023-01-09T01:59:04.094Z,97.60
2023-01-09T02:04:05.763Z,97.15
2023-01-09T02:09:08.629Z,97.21
2023-01-09T02:14:10.033Z,97.21
2023-01-09T02:19:32.749Z,98.09
2023-01-09T02:24:42.985Z,97.08
2023-01-09T02:30:20.846Z,97.95
2023-01-09T02:35:37.488Z,97.74
2023-01-09T02:40:42.531Z,98.57
2023-01-09T02:45:44.027Z,99.12
2023-01-09T02:51:19.590Z,99.83
2023-01-09T02:56:33.652Z,99.92
2023-01-09T03:02:18.563Z,99.95
2023-01-09T03:07:45.375Z,100.00
2023-01-09T03:12:51.636Z,100.00
2023-01-09T03:17:54.953Z,100.00
2023-01-09T03:23:01.584Z,100.00
2023-01-09T03:28:06.786Z,100.00
2023-01-09T03:33:08.397Z,100.00
2023-01-09T03:38:09.852Z,100.00
2023-01-09T03:43:11.390Z,100.00
2023-01-09T03:48:12.859Z,100.00
2023-01-09T03:53:14.388Z,100.00
2023-01-09T03:58:16.798Z,100.00
2023-01-09T04:03:20.445Z,100.00
2023-01-09T04:08:22.156Z,100.00
2023-01-09T04:13:23.638Z,100.00
2023-01-09T04:18:25.064Z,100.00
2023-01-09T04:23:26.581Z,100.00
2023-01-09T04:28:28.096Z,100.00
2023-01-09T04:33:29.788Z,100.00
2023-01-09T04:38:31.264Z,100.00
2023-01-09T04:43:32.713Z,99.41
2023-01-09T04:48:34.155Z,99.67
2023-01-09T04:53:35.684Z,99.38
2023-01-09T04:58:37.171Z,98.94
2023-01-09T05:03:38.650Z,98.42
2023-01-09T05:08:40.060Z,97.18
2023-01-09T05:13:41.648Z,96.53
2023-01-09T05:18:43.185Z,96.42
2023-01-09T05:23:44.627Z,95.99
2023-01-09T05:28:46.113Z,95.18
2023-01-09T05:33:47.733Z,95.59
2023-01-09T05:38:49.139Z,96.18
2023-01-09T05:43:50.550Z,95.24
2023-01-09T05:48:51.986Z,93.93
2023-01-09T05:53:53.490Z,93.85
2023-01-09T05:58:54.892Z,92.70
2023-01-09T06:03:56.493Z,91.27
2023-01-09T06:08:57.954Z,90.72
2023-01-09T06:13:59.377Z,90.34
2023-01-09T06:19:00.869Z,90.21
2023-01-09T06:24:02.284Z,89.09
2023-01-09T06:29:03.877Z,88.64
2023-01-09T06:34:05.321Z,87.36
2023-01-09T06:39:06.776Z,86.71
2023-01-09T06:44:08.178Z,87.15
2023-01-09T06:49:10.211Z,86.88
2023-01-09T06:54:11.638Z,87.08
2023-01-09T06:59:13.310Z,86.27
2023-01-09T07:04:14.902Z,86.93
2023-01-09T07:09:16.413Z,85.51
2023-01-09T07:14:17.844Z,84.77
2023-01-09T07:19:19.319Z,83.47
2023-01-09T07:24:20.881Z,82.94
2023-01-09T07:29:22.347Z,82.32
2023-01-09T07:34:23.800Z,82.05
2023-01-09T07:39:25.235Z,80.56
2023-01-09T07:44:26.713Z,80.59
2023-01-09T07:49:28.254Z,80.66
2023-01-09T07:54:29.673Z,81.03
2023-01-09T07:59:31.154Z,78.38
2023-01-09T08:04:33.212Z,74.88
2023-01-09T08:09:34.745Z,72.45
2023-01-09T08:14:37.143Z,71.76
2023-01-09T08:19:38.763Z,69.40
2023-01-09T08:24:41.117Z,67.50
2023-01-09T08:29:42.630Z,66.41
2023-01-09T08:34:44.106Z,64.68
2023-01-09T08:39:47.425Z,65.28
2023-01-09T08:45:08.747Z,66.04
2023-01-09T08:50:10.518Z,68.21
2023-01-09T08:55:12.046Z,67.32
2023-01-09T09:00:14.126Z,66.30
2023-01-09T09:05:15.933Z,66.04
2023-01-09T09:10:18.051Z,66.30
2023-01-09T09:15:26.486Z,66.51
2023-01-09T09:20:30.559Z,67.88
2023-01-09T09:25:32.109Z,68.03
2023-01-09T09:30:34.896Z,67.26
2023-01-09T09:35:36.712Z,66.97
2023-01-09T09:40:41.228Z,65.85
2023-01-09T09:46:28.101Z,62.88
2023-01-09T09:51:57.329Z,62.14
2023-01-09T09:57:04.357Z,64.63
2023-01-09T10:02:09.133Z,63.53
2023-01-09T10:07:22.533Z,60.86
2023-01-09T10:12:29.813Z,62.64
2023-01-09T10:17:59.334Z,62.49
2023-01-09T10:23:15.916Z,63.06
2023-01-09T10:28:33.749Z,63.28
2023-01-09T10:34:03.114Z,63.90
2023-01-09T10:39:10.363Z,64.74
2023-01-09T10:44:18.205Z,66.92
2023-01-09T10:49:21.300Z,66.55
2023-01-09T10:54:26.929Z,67.13
2023-01-09T10:59:30.171Z,67.03
2023-01-09T11:04:39.394Z,62.98
2023-01-09T11:10:19.040Z,63.07
2023-01-09T11:15:29.951Z,63.40
2023-01-09T11:20:31.599Z,63.00
2023-01-09T11:25:33.074Z,64.99
2023-01-09T11:30:37.688Z,68.51
2023-01-09T11:35:39.284Z,71.65
2023-01-09T11:41:05.276Z,74.09
2023-01-09T11:46:10.495Z,74.53
2023-01-09T11:51:21.737Z,76.53
2023-01-09T11:56:23.588Z,77.21
2023-01-09T12:01:34.633Z,77.21
2023-01-09T12:06:54.930Z,77.62
2023-01-09T12:12:22.698Z,77.69
2023-01-09T12:18:13.610Z,78.60
2023-01-09T12:23:33.985Z,79.01
2023-01-09T12:28:43.144Z,79.31
2023-01-09T12:34:12.572Z,79.15
2023-01-09T12:39:44.499Z,79.83
2023-01-09T12:44:53.350Z,80.40
2023-01-09T12:50:21.095Z,82.30
2023-01-09T12:55:25.606Z,83.53
2023-01-09T13:00:31.778Z,84.33
2023-01-09T13:05:37.165Z,84.50
2023-01-09T13:10:42.329Z,85.12
2023-01-09T13:15:53.019Z,86.26
2023-01-09T13:20:56.753Z,85.35
2023-01-09T13:26:07.030Z,85.42
2023-01-09T13:31:24.586Z,85.90
2023-01-09T13:36:30.116Z,85.84
2023-01-09T13:41:50.927Z,86.60
2023-01-09T13:46:55.811Z,86.73
2023-01-09T13:52:02.069Z,86.89
2023-01-09T13:57:17.062Z,86.38
2023-01-09T14:02:33.857Z,85.91
2023-01-09T14:07:45.675Z,85.95
2023-01-09T14:12:47.729Z,85.65
2023-01-09T14:17:58.328Z,85.75
2023-01-09T14:28:27.447Z,87.33
2023-01-09T14:33:31.750Z,88.56
2023-01-09T14:38:48.766Z,88.86
2023-01-09T14:44:12.823Z,89.14
2023-01-09T14:49:28.626Z,89.63
2023-01-09T14:54:34.978Z,89.42
2023-01-09T14:59:36.675Z,90.63
2023-01-09T15:04:41.119Z,91.27
2023-01-09T15:09:47.164Z,91.53
2023-01-09T15:14:55.395Z,92.48
2023-01-09T15:20:02.027Z,91.57
2023-01-09T15:25:38.553Z,93.41
2023-01-09T15:30:41.841Z,94.12
2023-01-09T15:35:45.534Z,93.50
2023-01-09T15:40:56.011Z,95.03
2023-01-09T15:45:58.570Z,95.13
2023-01-09T15:51:14.660Z,96.03
2023-01-09T15:56:30.689Z,95.99
2023-01-09T16:01:33.725Z,96.69
2023-01-09T16:06:45.244Z,95.95
2023-01-09T16:11:52.083Z,96.46
2023-01-09T16:16:58.476Z,96.09
2023-01-09T16:22:02.306Z,97.47
2023-01-09T16:27:21.459Z,97.22
2023-01-09T16:32:32.179Z,96.79
2023-01-09T16:37:34.186Z,96.92
2023-01-09T16:42:54.432Z,97.21
2023-01-09T16:47:57.257Z,96.72
2023-01-09T16:52:59.528Z,96.03
2023-01-09T16:58:00.998Z,95.75
2023-01-09T17:03:04.345Z,95.56
2023-01-09T17:08:26.260Z,95.62
2023-01-09T17:13:27.981Z,95.82
2023-01-09T17:18:29.753Z,96.12
2023-01-09T17:23:31.178Z,96.57
2023-01-09T17:28:32.629Z,96.56
2023-01-09T17:33:34.194Z,96.38
2023-01-09T17:38:35.614Z,97.84
2023-01-09T17:43:37.134Z,97.23
2023-01-09T17:48:38.550Z,98.53
2023-01-09T17:53:39.951Z,98.76
2023-01-09T17:58:41.358Z,99.88
2023-01-09T18:03:44.102Z,99.93
2023-01-09T18:08:45.673Z,99.76
2023-01-09T18:13:49.753Z,100.00
2023-01-09T18:18:57.611Z,100.00
2023-01-09T18:24:01.697Z,100.00
2023-01-09T18:29:03.691Z,99.62
2023-01-09T18:34:05.305Z,100.00
2023-01-09T18:39:08.632Z,100.00
2023-01-09T18:44:10.088Z,100.00
2023-01-09T18:49:11.514Z,100.00
2023-01-09T18:54:13.280Z,100.00
2023-01-09T18:59:14.767Z,100.00
2023-01-09T19:04:16.262Z,100.00
2023-01-09T19:09:17.710Z,100.00
2023-01-09T19:14:19.318Z,100.00
2023-01-09T19:19:20.768Z,100.00
2023-01-09T19:24:22.964Z,100.00
2023-01-09T19:29:24.393Z,100.00
2023-01-09T19:34:25.808Z,100.00
2023-01-09T19:39:27.377Z,100.00
2023-01-09T19:44:30.390Z,100.00
2023-01-09T19:49:32.389Z,100.00
2023-01-09T19:54:34.312Z,100.00
2023-01-09T19:59:36.537Z,100.00
2023-01-09T20:04:38.058Z,100.00
2023-01-09T20:09:39.470Z,100.00
2023-01-09T20:14:41.103Z,100.00
2023-01-09T20:19:44.335Z,100.00
2023-01-09T20:24:45.812Z,100.00
2023-01-09T20:29:47.936Z,100.00
2023-01-09T20:34:49.371Z,100.00
2023-01-09T20:39:52.954Z,100.00
2023-01-09T20:44:55.618Z,100.00
2023-01-09T20:49:57.126Z,100.00
2023-01-09T20:54:58.549Z,100.00
2023-01-09T21:00:00.011Z,99.03
2023-01-09T21:05:02.390Z,99.12
2023-01-09T21:10:04.255Z,98.79
2023-01-09T21:15:09.775Z,99.34
2023-01-09T21:20:13.943Z,97.96
2023-01-09T21:25:18.457Z,98.40
2023-01-09T21:30:19.924Z,99.12
2023-01-09T21:35:21.400Z,99.39
2023-01-09T21:40:22.981Z,100.00
2023-01-09T21:45:43.138Z,99.51
2023-01-09T21:50:44.617Z,99.90
2023-01-09T21:55:46.029Z,100.00
2023-01-09T22:00:47.543Z,100.00
2023-01-09T22:05:49.021Z,99.37
2023-01-09T22:10:55.343Z,99.35
2023-01-09T22:16:03.185Z,99.86
2023-01-09T22:21:04.816Z,99.74
2023-01-09T22:26:08.113Z,99.23
2023-01-09T22:31:10.551Z,99.08
2023-01-09T22:36:12.106Z,98.44
2023-01-09T22:41:13.648Z,99.78
2023-01-09T22:46:15.154Z,99.56
2023-01-09T22:51:18.673Z,99.93
2023-01-09T22:56:22.170Z,99.02
2023-01-09T23:01:24.335Z,99.13
2023-01-09T23:06:25.873Z,99.84
2023-01-09T23:11:48.517Z,99.73
2023-01-09T23:16:49.936Z,100.00
2023-01-09T23:21:51.375Z,100.00
2023-01-09T23:26:54.890Z,100.00
2023-01-09T23:31:56.372Z,100.00
2023-01-09T23:36:57.924Z,100.00
2023-01-09T23:42:18.079Z,100.00
2023-01-09T23:47:19.568Z,100.00
2023-01-09T23:52:20.994Z,100.00
2023-01-09T23:57:22.440Z,100.00
